Time;durP1;ratioP1;P1;durP2;ratioP2;P2;SDS_P1;SDS_P2;PMS_P1;PMS_P2;Temp;Humidity;BMP_temperature;BMP_pressure;BME280_temperature;BME280_humidity;BME280_pressure;Samples;Min_cycle;Max_cycle;Signal;HPM_P1;HPM_P2
2023/01/27 00:01:52;;;;;;;14.82;3.83;;;6.40;79.80;;;;;;5032890;28;20120;-79
2023/01/27 00:04:18;;;;;;;14.00;2.78;;;6.50;79.90;;;;;;5039041;28;20036;-77
2023/01/27 00:06:43;;;;;;;14.75;3.20;;;6.40;79.90;;;;;;5032167;28;20040;-79
2023/01/27 00:09:10;;;;;;;13.90;2.92;;;6.50;80.10;;;;;;5032974;28;20036;-79
2023/01/27 00:14:20;;;;;;;14.67;2.73;;;6.40;80.30;;;;;;5034117;28;20098;-80
2023/01/27 00:16:45;;;;;;;14.40;3.63;;;6.40;80.40;;;;;;5030418;28;20280;-80
2023/01/27 00:19:11;;;;;;;11.13;3.22;;;6.40;80.50;;;;;;5037411;28;20036;-79
2023/01/27 00:24:35;;;;;;;12.70;2.40;;;6.40;79.80;;;;;;5031752;28;20128;-79
2023/01/27 00:27:07;;;;;;;15.80;3.17;;;6.40;79.70;;;;;;5029932;28;20109;-80
2023/01/27 00:29:34;;;;;;;11.27;3.38;;;6.40;79.40;;;;;;5040690;28;20078;-80
2023/01/27 00:34:44;;;;;;;23.27;4.03;;;6.40;79.10;;;;;;5033869;28;20036;-78
2023/01/27 00:37:10;;;;;;;15.02;2.53;;;6.40;79.00;;;;;;5032469;28;20806;-80
2023/01/27 00:39:35;;;;;;;14.38;3.72;;;6.40;78.70;;;;;;5032086;28;20049;-78
2023/01/27 00:42:01;;;;;;;11.20;2.70;;;6.40;78.60;;;;;;5030111;28;20036;-80
2023/01/27 00:44:27;;;;;;;12.40;2.63;;;6.50;78.50;;;;;;5032429;28;20042;-80
2023/01/27 00:46:52;;;;;;;11.52;2.75;;;6.40;78.40;;;;;;5037255;28;20059;-79
2023/01/27 00:49:18;;;;;;;13.55;2.83;;;6.40;78.60;;;;;;5032224;28;20556;-78
2023/01/27 00:51:44;;;;;;;15.18;3.17;;;6.40;78.70;;;;;;5038072;28;20024;-78
2023/01/27 00:54:10;;;;;;;15.27;2.95;;;6.40;78.60;;;;;;5037050;28;20048;-78
2023/01/27 00:56:36;;;;;;;12.52;2.42;;;6.40;78.50;;;;;;5039913;28;20052;-78
2023/01/27 00:59:03;;;;;;;14.40;3.33;;;6.40;78.30;;;;;;5035261;28;20013;-80
2023/01/27 01:01:29;;;;;;;11.00;3.13;;;6.40;78.40;;;;;;5032188;28;20037;-77
2023/01/27 01:03:57;;;;;;;12.60;3.00;;;6.50;78.40;;;;;;5037676;28;20056;-79
2023/01/27 01:06:22;;;;;;;17.42;3.63;;;6.50;78.50;;;;;;5029625;28;20037;-81
2023/01/27 01:08:50;;;;;;;15.18;4.10;;;6.50;78.70;;;;;;5032869;28;20032;-79
2023/01/27 01:11:16;;;;;;;13.90;3.30;;;6.50;78.90;;;;;;5036469;28;20037;-80
2023/01/27 01:13:43;;;;;;;15.02;3.00;;;6.40;79.00;;;;;;5034726;28;20021;-79
2023/01/27 01:16:12;;;;;;;11.40;2.97;;;6.40;79.00;;;;;;5042877;28;20396;-80
2023/01/27 01:18:37;;;;;;;14.80;3.13;;;6.40;79.20;;;;;;5035535;28;20117;-80
2023/01/27 01:21:05;;;;;;;11.02;3.08;;;6.40;79.10;;;;;;5042704;28;20052;-80
2023/01/27 01:23:32;;;;;;;16.42;3.13;;;6.40;78.80;;;;;;5039759;28;20064;-80
2023/01/27 01:25:58;;;;;;;16.45;3.22;;;6.40;79.00;;;;;;5047365;28;20052;-80
2023/01/27 01:28:24;;;;;;;12.73;3.25;;;6.40;79.10;;;;;;5034618;28;20026;-79
2023/01/27 01:30:49;;;;;;;19.33;4.07;;;6.50;79.00;;;;;;5043406;28;20317;-79
2023/01/27 01:33:16;;;;;;;19.73;4.65;;;6.50;79.20;;;;;;5040077;28;20146;-80
2023/01/27 01:35:42;;;;;;;13.05;2.95;;;6.40;79.50;;;;;;5045212;28;20135;-80
2023/01/27 01:38:08;;;;;;;19.52;3.53;;;6.40;79.70;;;;;;5040138;28;20026;-81
2023/01/27 01:40:33;;;;;;;15.13;3.63;;;6.40;79.90;;;;;;5035003;28;20032;-80
2023/01/27 01:43:02;;;;;;;14.07;4.10;;;6.40;80.10;;;;;;5044983;28;20029;-80
2023/01/27 01:45:31;;;;;;;14.93;3.35;;;6.40;80.40;;;;;;5042752;28;20025;-81
2023/01/27 01:48:05;;;;;;;11.07;3.50;;;6.40;80.70;;;;;;5038977;28;20127;-81
2023/01/27 01:50:32;;;;;;;14.02;3.22;;;6.40;80.90;;;;;;5036667;28;20048;-78
2023/01/27 01:53:00;;;;;;;15.65;3.70;;;6.40;81.10;;;;;;5044046;28;20457;-80
2023/01/27 01:55:26;;;;;;;18.50;3.58;;;6.40;81.40;;;;;;5043174;28;20040;-81
2023/01/27 01:57:52;;;;;;;17.83;4.70;;;6.40;81.30;;;;;;5043801;28;20021;-78
2023/01/27 02:00:18;;;;;;;15.32;3.85;;;6.40;81.40;;;;;;5044123;28;20021;-77
2023/01/27 02:02:45;;;;;;;17.08;3.88;;;6.40;81.70;;;;;;5036010;28;20036;-81
2023/01/27 02:05:16;;;;;;;16.52;4.03;;;6.40;81.90;;;;;;5037893;28;20013;-79
2023/01/27 02:08:03;;;;;;;15.60;4.00;;;6.30;82.30;;;;;;5042356;28;20033;-81
2023/01/27 02:10:29;;;;;;;13.95;3.60;;;6.30;82.70;;;;;;5055528;28;20132;-79
2023/01/27 02:12:55;;;;;;;21.15;4.30;;;6.30;82.80;;;;;;5040843;28;20170;-81
2023/01/27 02:15:20;;;;;;;16.25;4.00;;;6.30;83.00;;;;;;5045570;28;20017;-81
2023/01/27 02:17:47;;;;;;;18.33;4.07;;;6.30;83.20;;;;;;5042968;28;20091;-80
2023/01/27 02:20:40;;;;;;;21.15;4.40;;;6.20;83.30;;;;;;5040093;28;20532;-80
2023/01/27 02:23:30;;;;;;;19.67;3.83;;;6.30;83.50;;;;;;5039456;28;20067;-80
2023/01/27 02:26:02;;;;;;;21.65;4.80;;;6.20;83.70;;;;;;5042377;28;20037;-81
2023/01/27 02:28:29;;;;;;;16.98;4.00;;;6.20;83.80;;;;;;5041937;28;20033;-81
2023/01/27 02:30:55;;;;;;;16.63;3.88;;;6.20;83.80;;;;;;5038598;28;20029;-81
2023/01/27 02:33:21;;;;;;;15.85;3.35;;;6.20;83.90;;;;;;5040861;28;20096;-81
2023/01/27 02:36:07;;;;;;;17.48;3.60;;;6.20;84.10;;;;;;5041154;28;20040;-80
2023/01/27 02:38:37;;;;;;;18.65;4.38;;;6.20;84.20;;;;;;5038074;28;20472;-80
2023/01/27 02:41:25;;;;;;;18.92;3.70;;;6.20;84.40;;;;;;5038630;28;20025;-80
2023/01/27 02:43:52;;;;;;;18.20;4.13;;;6.10;84.50;;;;;;5037375;28;20100;-80
2023/01/27 02:46:18;;;;;;;19.73;4.05;;;6.20;84.60;;;;;;5040992;28;20036;-79
2023/01/27 02:48:44;;;;;;;17.88;4.28;;;6.20;84.70;;;;;;5037605;28;20038;-81
2023/01/27 02:51:10;;;;;;;20.27;3.30;;;6.20;84.80;;;;;;5044309;28;20492;-79
2023/01/27 02:53:35;;;;;;;16.13;3.97;;;6.20;84.70;;;;;;5042942;28;20078;-78
2023/01/27 02:56:01;;;;;;;24.50;4.25;;;6.10;84.70;;;;;;5041760;28;20064;-79
2023/01/27 02:58:27;;;;;;;15.73;3.60;;;6.20;84.70;;;;;;5040840;28;20057;-80
2023/01/27 03:00:52;;;;;;;15.95;3.72;;;6.10;84.80;;;;;;5039985;28;20036;-79
2023/01/27 03:03:18;;;;;;;20.83;3.92;;;6.20;84.70;;;;;;5040010;28;20102;-80
2023/01/27 03:05:45;;;;;;;17.83;3.67;;;6.20;84.60;;;;;;5039865;28;20377;-78
2023/01/27 03:08:10;;;;;;;19.85;4.78;;;6.20;84.60;;;;;;5040508;28;20143;-80
2023/01/27 03:10:36;;;;;;;18.48;3.88;;;6.20;84.50;;;;;;5041885;28;20029;-79
2023/01/27 03:13:02;;;;;;;16.80;3.58;;;6.20;84.50;;;;;;5036333;28;20365;-79
2023/01/27 03:18:14;;;;;;;13.93;3.53;;;6.20;84.50;;;;;;5037675;28;20162;-80
2023/01/27 03:20:41;;;;;;;20.08;3.65;;;6.20;84.60;;;;;;5044771;28;20078;-81
2023/01/27 03:23:07;;;;;;;17.48;3.55;;;6.20;84.60;;;;;;5039564;28;20106;-80
2023/01/27 03:25:33;;;;;;;22.45;4.72;;;6.20;84.60;;;;;;5046037;28;20476;-80
2023/01/27 03:27:59;;;;;;;23.38;4.57;;;6.20;84.70;;;;;;5041346;28;20527;-80
2023/01/27 03:30:25;;;;;;;18.17;4.05;;;6.20;84.80;;;;;;5036905;28;20020;-77
2023/01/27 03:32:51;;;;;;;17.50;3.78;;;6.20;85.00;;;;;;5038521;28;20228;-79
2023/01/27 03:35:17;;;;;;;20.15;3.75;;;6.20;85.00;;;;;;5042556;28;20029;-78
2023/01/27 03:46:17;;;;;;;19.42;3.92;;;6.10;85.50;;;;;;5039075;28;20039;-80
2023/01/27 03:48:48;;;;;;;13.85;3.28;;;6.10;85.70;;;;;;5040190;28;20198;-80
2023/01/27 03:51:14;;;;;;;17.20;4.03;;;6.10;85.80;;;;;;5037160;28;20036;-79
2023/01/27 03:53:39;;;;;;;18.05;4.03;;;6.10;85.90;;;;;;5041250;28;20385;-79
2023/01/27 03:56:05;;;;;;;21.02;4.45;;;6.10;86.10;;;;;;5040292;28;20461;-80
2023/01/27 03:58:33;;;;;;;19.83;4.20;;;6.00;86.10;;;;;;5038582;28;20022;-80
2023/01/27 04:01:02;;;;;;;18.98;4.22;;;6.10;86.10;;;;;;5038009;28;20423;-78
2023/01/27 04:09:03;;;;;;;14.43;3.38;;;6.00;86.40;;;;;;5039971;28;20079;-80
2023/01/27 04:14:14;;;;;;;15.65;4.22;;;5.90;86.30;;;;;;5034420;28;20035;-80
2023/01/27 04:16:40;;;;;;;13.57;3.63;;;6.00;86.20;;;;;;5044505;28;20521;-78
2023/01/27 04:19:08;;;;;;;16.23;4.43;;;6.00;86.00;;;;;;5039923;28;20031;-80
2023/01/27 04:21:34;;;;;;;17.42;4.63;;;6.10;85.90;;;;;;5042014;28;20060;-79
2023/01/27 04:24:00;;;;;;;14.68;4.88;;;6.10;85.50;;;;;;5040703;28;20059;-80
2023/01/27 04:26:31;;;;;;;16.88;4.38;;;6.10;85.50;;;;;;5038555;28;20083;-80
2023/01/27 04:28:58;;;;;;;12.45;4.45;;;6.10;85.10;;;;;;5045030;28;20064;-78
2023/01/27 04:31:23;;;;;;;18.67;4.93;;;6.00;84.80;;;;;;5036010;28;20033;-79
2023/01/27 04:33:49;;;;;;;15.07;5.00;;;6.10;84.00;;;;;;5039968;28;20043;-80
2023/01/27 04:36:15;;;;;;;14.88;4.47;;;6.10;83.60;;;;;;5039461;28;20497;-80
2023/01/27 04:38:41;;;;;;;14.00;5.05;;;6.10;83.50;;;;;;5041413;28;20028;-80
2023/01/27 04:41:06;;;;;;;13.48;4.72;;;6.10;83.50;;;;;;5043746;28;20020;-80
2023/01/27 04:43:32;;;;;;;16.10;4.97;;;6.10;83.30;;;;;;5038339;28;20104;-78
2023/01/27 04:45:58;;;;;;;14.57;4.47;;;6.10;83.00;;;;;;5035492;28;20132;-79
2023/01/27 04:48:23;;;;;;;16.10;5.57;;;6.10;83.00;;;;;;5037515;28;20051;-79
2023/01/27 04:50:49;;;;;;;16.33;5.45;;;6.10;82.70;;;;;;5040749;28;20113;-80
2023/01/27 04:53:15;;;;;;;11.85;4.93;;;6.10;82.60;;;;;;5034998;28;20024;-80
2023/01/27 04:55:44;;;;;;;11.20;5.07;;;6.10;82.40;;;;;;5041291;28;20125;-79
2023/01/27 04:58:12;;;;;;;12.80;5.15;;;6.10;82.40;;;;;;5049509;28;20028;-79
2023/01/27 05:00:38;;;;;;;14.30;5.65;;;6.10;82.30;;;;;;5041882;28;20087;-80
2023/01/27 05:03:04;;;;;;;14.27;5.55;;;6.10;82.50;;;;;;5047696;28;20034;-79
2023/01/27 05:05:31;;;;;;;17.10;6.00;;;6.10;82.70;;;;;;5045011;28;20623;-81
2023/01/27 05:08:01;;;;;;;11.57;5.10;;;6.10;83.10;;;;;;5043811;28;20032;-80
2023/01/27 05:10:27;;;;;;;15.45;5.43;;;6.10;83.20;;;;;;5040102;28;20040;-81
2023/01/27 05:12:52;;;;;;;20.65;5.88;;;6.00;83.40;;;;;;5046638;28;20016;-79
2023/01/27 05:15:18;;;;;;;13.27;5.40;;;5.90;83.60;;;;;;5042397;28;20376;-78
2023/01/27 05:17:43;;;;;;;13.85;5.30;;;5.90;83.80;;;;;;5047281;28;20464;-79
2023/01/27 05:20:09;;;;;;;16.17;5.80;;;5.90;83.40;;;;;;5042846;28;20018;-79
2023/01/27 05:22:35;;;;;;;14.38;5.47;;;5.70;83.20;;;;;;5044560;28;20255;-80
2023/01/27 05:25:01;;;;;;;11.57;5.28;;;5.70;83.40;;;;;;5043038;28;20055;-80
2023/01/27 05:27:26;;;;;;;13.93;5.35;;;5.70;83.30;;;;;;5040921;28;20048;-80
2023/01/27 05:29:52;;;;;;;13.23;5.47;;;5.60;83.00;;;;;;5042912;28;20021;-80
2023/01/27 05:32:18;;;;;;;13.35;5.43;;;5.60;82.70;;;;;;5041595;28;20037;-79
2023/01/27 05:34:43;;;;;;;12.05;5.85;;;5.60;82.50;;;;;;5044946;28;20020;-81
2023/01/27 05:37:09;;;;;;;13.60;6.05;;;5.50;81.90;;;;;;5044907;28;20029;-79
2023/01/27 05:39:34;;;;;;;14.63;5.63;;;5.50;82.00;;;;;;5044162;28;20456;-80
2023/01/27 05:42:00;;;;;;;13.15;6.47;;;5.60;82.00;;;;;;5045499;28;20021;-80
2023/01/27 05:44:26;;;;;;;12.80;6.45;;;5.60;81.80;;;;;;5048090;28;20028;-77
2023/01/27 05:46:51;;;;;;;15.82;7.18;;;5.50;81.80;;;;;;5045227;28;20045;-81
2023/01/27 05:49:17;;;;;;;12.85;7.88;;;5.50;82.00;;;;;;5041546;28;20504;-80
2023/01/27 05:51:43;;;;;;;18.20;8.20;;;5.40;82.20;;;;;;5043822;28;20107;-80
2023/01/27 05:54:09;;;;;;;14.05;7.15;;;5.40;82.40;;;;;;5042670;28;20098;-82
2023/01/27 05:56:34;;;;;;;15.40;7.97;;;5.40;82.30;;;;;;5049998;28;20191;-81
2023/01/27 05:59:00;;;;;;;17.13;8.02;;;5.40;82.40;;;;;;5042528;28;20041;-81
2023/01/27 06:01:29;;;;;;;16.65;8.45;;;5.40;82.50;;;;;;5042932;28;20024;-78
2023/01/27 06:03:55;;;;;;;15.68;9.10;;;5.30;82.60;;;;;;5039899;28;20105;-80
2023/01/27 06:06:23;;;;;;;14.93;8.15;;;5.40;82.70;;;;;;5041089;28;20041;-81
2023/01/27 06:08:49;;;;;;;15.82;8.88;;;5.30;82.80;;;;;;5042387;28;20025;-79
2023/01/27 06:11:18;;;;;;;13.25;9.10;;;5.30;82.70;;;;;;5045566;28;20033;-80
2023/01/27 06:13:44;;;;;;;15.90;10.30;;;5.30;82.80;;;;;;5043396;28;20421;-81
2023/01/27 06:16:12;;;;;;;14.48;9.25;;;5.40;83.10;;;;;;5041451;28;20041;-79
2023/01/27 06:18:38;;;;;;;17.42;9.07;;;5.30;83.30;;;;;;5042330;28;20048;-81
2023/01/27 06:21:07;;;;;;;16.38;9.02;;;5.30;83.20;;;;;;5043719;28;20021;-81
2023/01/27 06:23:33;;;;;;;15.10;9.15;;;5.30;82.70;;;;;;5041630;28;20032;-80
2023/01/27 06:26:08;;;;;;;16.83;10.23;;;5.30;82.80;;;;;;5045690;28;20038;-79
2023/01/27 06:28:34;;;;;;;16.25;9.82;;;5.30;82.60;;;;;;5046532;28;20094;-81
2023/01/27 06:31:12;;;;;;;18.20;10.40;;;5.20;82.60;;;;;;5043100;28;20041;-79
2023/01/27 06:33:38;;;;;;;17.40;10.52;;;5.20;82.20;;;;;;5046427;28;20332;-81
2023/01/27 06:36:06;;;;;;;20.38;10.85;;;5.30;82.20;;;;;;5031703;28;20124;-81
2023/01/27 06:38:32;;;;;;;16.17;10.88;;;5.20;82.00;;;;;;5040155;28;20021;-80
2023/01/27 06:40:59;;;;;;;16.92;10.50;;;5.20;82.10;;;;;;5036371;28;20032;-80
2023/01/27 06:43:24;;;;;;;18.13;10.50;;;5.20;82.40;;;;;;5041982;28;20014;-80
2023/01/27 06:45:50;;;;;;;17.60;10.23;;;5.20;82.50;;;;;;5043843;28;20127;-80
2023/01/27 06:48:16;;;;;;;20.60;14.40;;;5.20;82.20;;;;;;5039781;28;20045;-79
2023/01/27 06:50:41;;;;;;;19.98;12.98;;;5.20;82.20;;;;;;5045103;28;20031;-81
2023/01/27 06:53:07;;;;;;;20.13;12.20;;;5.10;82.00;;;;;;5045083;28;20033;-81
2023/01/27 06:55:34;;;;;;;15.88;11.45;;;5.10;82.00;;;;;;5036437;28;20028;-80
2023/01/27 06:58:01;;;;;;;17.88;11.85;;;5.10;81.90;;;;;;5037405;28;20059;-81
2023/01/27 07:00:27;;;;;;;19.25;12.40;;;5.00;81.80;;;;;;5031484;28;20047;-80
2023/01/27 07:02:55;;;;;;;22.27;13.68;;;5.00;82.00;;;;;;5037089;28;20545;-78
2023/01/27 07:05:21;;;;;;;21.38;13.38;;;5.00;82.30;;;;;;5039372;28;20267;-80
2023/01/27 07:07:47;;;;;;;20.90;13.95;;;4.90;82.50;;;;;;5040099;28;20452;-81
2023/01/27 07:10:12;;;;;;;21.13;13.38;;;5.00;82.50;;;;;;5036556;28;20541;-79
2023/01/27 07:12:38;;;;;;;21.50;13.80;;;5.00;82.50;;;;;;5036377;28;20045;-80
2023/01/27 07:15:08;;;;;;;20.85;14.25;;;5.00;82.60;;;;;;5039604;28;20018;-78
2023/01/27 07:17:34;;;;;;;24.33;14.88;;;5.00;82.80;;;;;;5046838;28;20423;-79
2023/01/27 07:20:01;;;;;;;28.65;15.63;;;4.90;83.20;;;;;;5035728;28;20106;-80
2023/01/27 07:22:27;;;;;;;22.27;16.45;;;4.90;83.30;;;;;;5033032;28;20124;-77
2023/01/27 07:24:54;;;;;;;25.52;17.95;;;4.90;83.70;;;;;;5035565;28;20738;-80
2023/01/27 07:27:21;;;;;;;25.77;15.75;;;5.00;83.70;;;;;;5036439;28;20032;-80
2023/01/27 07:29:46;;;;;;;25.23;15.80;;;4.90;83.90;;;;;;5030478;28;20020;-79
2023/01/27 07:32:12;;;;;;;27.23;18.38;;;4.80;84.10;;;;;;5032537;28;20033;-80
2023/01/27 07:34:38;;;;;;;26.92;17.63;;;4.90;83.80;;;;;;5031105;28;20017;-81
2023/01/27 07:37:04;;;;;;;28.63;17.27;;;4.90;84.10;;;;;;5031783;28;20095;-81
2023/01/27 07:39:30;;;;;;;26.38;17.00;;;4.80;84.00;;;;;;5036577;28;20461;-81
2023/01/27 07:41:57;;;;;;;26.35;16.10;;;4.80;84.00;;;;;;5032420;28;20079;-79
2023/01/27 07:44:23;;;;;;;26.30;17.55;;;4.80;84.10;;;;;;5036493;28;20062;-81
2023/01/27 07:46:49;;;;;;;26.45;17.42;;;4.70;84.00;;;;;;5041083;28;20033;-80
2023/01/27 07:49:14;;;;;;;28.63;18.38;;;4.80;83.90;;;;;;5037610;28;20041;-79
2023/01/27 07:51:40;;;;;;;29.77;18.80;;;4.80;83.70;;;;;;5035528;28;20039;-79
2023/01/27 07:54:06;;;;;;;27.38;18.38;;;4.80;83.70;;;;;;5033673;28;20017;-79
2023/01/27 07:56:31;;;;;;;32.33;20.25;;;4.70;83.90;;;;;;5032947;28;20208;-80
2023/01/27 07:58:57;;;;;;;27.05;17.95;;;4.60;83.90;;;;;;5026905;28;20032;-82
2023/01/27 08:01:23;;;;;;;26.83;17.90;;;4.60;84.10;;;;;;5030476;28;20428;-80
2023/01/27 08:03:49;;;;;;;32.67;20.52;;;4.60;84.10;;;;;;5029115;28;20025;-81
2023/01/27 08:06:14;;;;;;;29.70;20.17;;;4.60;84.00;;;;;;5022772;28;20068;-81
2023/01/27 08:08:40;;;;;;;29.15;20.55;;;4.60;84.10;;;;;;5025240;28;20037;-78
2023/01/27 08:11:08;;;;;;;30.52;20.85;;;4.60;83.90;;;;;;5022105;28;20477;-81
2023/01/27 08:13:34;;;;;;;29.35;19.92;;;4.70;83.80;;;;;;5025162;28;20033;-81
2023/01/27 08:16:02;;;;;;;30.95;19.65;;;4.60;83.70;;;;;;5022853;28;20029;-81
2023/01/27 08:18:28;;;;;;;32.88;19.15;;;4.60;83.40;;;;;;5023324;28;20029;-80
2023/01/27 08:20:58;;;;;;;30.45;19.55;;;4.60;83.30;;;;;;5024303;28;20090;-81
2023/01/27 08:23:24;;;;;;;33.20;20.60;;;4.70;83.20;;;;;;5033047;28;20025;-79
2023/01/27 08:25:55;;;;;;;30.52;18.63;;;4.60;83.40;;;;;;5026212;28;20508;-76
2023/01/27 08:28:21;;;;;;;31.23;19.95;;;4.60;83.30;;;;;;5034782;28;20021;-76
2023/01/27 08:30:50;;;;;;;29.38;17.92;;;4.60;83.60;;;;;;5035547;28;20461;-75
2023/01/27 08:33:17;;;;;;;27.63;17.88;;;4.60;83.40;;;;;;5036457;28;20025;-75
2023/01/27 08:35:43;;;;;;;29.00;18.23;;;4.60;83.10;;;;;;5032852;28;20396;-77
2023/01/27 08:38:14;;;;;;;26.67;17.58;;;4.70;82.70;;;;;;5037633;28;20024;-76
2023/01/27 08:40:41;;;;;;;27.80;18.83;;;4.60;82.80;;;;;;5031719;28;20454;-76
2023/01/27 08:43:07;;;;;;;30.38;17.77;;;4.60;82.70;;;;;;5036800;28;20024;-76
2023/01/27 08:45:34;;;;;;;27.75;17.95;;;4.60;82.50;;;;;;5037049;28;20024;-76
2023/01/27 08:48:00;;;;;;;26.73;16.92;;;4.70;82.20;;;;;;5035363;28;20057;-75
2023/01/27 08:50:28;;;;;;;26.15;16.05;;;4.60;82.40;;;;;;5034146;28;20548;-77
2023/01/27 08:52:57;;;;;;;26.52;15.95;;;4.60;82.30;;;;;;5034392;28;20138;-76
2023/01/27 08:55:29;;;;;;;25.67;16.10;;;4.60;82.50;;;;;;5037244;28;20500;-76
2023/01/27 08:57:55;;;;;;;23.27;15.48;;;4.60;82.10;;;;;;5038397;28;20552;-76
2023/01/27 09:00:21;;;;;;;24.88;14.43;;;4.60;82.00;;;;;;5037776;28;20024;-77
2023/01/27 09:02:49;;;;;;;27.40;17.33;;;4.60;82.20;;;;;;5040430;28;20122;-77
2023/01/27 09:05:16;;;;;;;29.52;17.83;;;4.60;82.10;;;;;;5040085;28;20505;-77
2023/01/27 09:07:43;;;;;;;28.02;16.77;;;4.60;82.10;;;;;;5041469;28;20464;-76
2023/01/27 09:10:09;;;;;;;25.08;16.02;;;4.60;82.10;;;;;;5039225;28;20024;-76
2023/01/27 09:12:35;;;;;;;27.85;17.02;;;4.60;82.00;;;;;;5038568;28;20033;-76
2023/01/27 09:15:01;;;;;;;26.85;17.23;;;4.70;82.00;;;;;;5039345;28;20017;-76
2023/01/27 09:17:27;;;;;;;27.42;17.80;;;4.70;82.00;;;;;;5037954;28;20048;-76
2023/01/27 09:19:53;;;;;;;30.90;18.17;;;4.60;81.80;;;;;;5039835;28;20033;-75
2023/01/27 09:22:19;;;;;;;25.13;17.50;;;4.60;81.80;;;;;;5039325;28;20094;-76
2023/01/27 09:24:44;;;;;;;26.95;17.17;;;4.70;82.00;;;;;;5041035;28;20032;-76
2023/01/27 09:27:10;;;;;;;29.02;17.23;;;4.70;81.70;;;;;;5038610;28;20053;-76
2023/01/27 09:29:37;;;;;;;31.00;17.10;;;4.70;81.80;;;;;;5042210;28;20021;-76
2023/01/27 09:32:03;;;;;;;28.80;17.33;;;4.70;81.70;;;;;;5037188;28;20045;-77
2023/01/27 09:34:29;;;;;;;27.83;17.80;;;4.70;81.80;;;;;;5036182;28;20033;-75
2023/01/27 09:37:03;;;;;;;25.83;16.35;;;4.70;82.00;;;;;;5039952;28;20531;-76
2023/01/27 09:39:31;;;;;;;29.92;17.80;;;4.70;81.90;;;;;;5036712;28;20035;-76
2023/01/27 09:42:30;;;;;;;25.60;16.60;;;4.70;81.80;;;;;;5035068;28;20044;-77
2023/01/27 09:45:10;;;;;;;28.42;16.73;;;4.80;81.80;;;;;;5034806;28;20357;-75
2023/01/27 09:47:46;;;;;;;27.33;17.38;;;4.90;81.80;;;;;;5033960;28;20485;-76
2023/01/27 09:51:02;;;;;;;24.92;16.75;;;4.90;81.60;;;;;;5037795;28;20048;-76
2023/01/27 09:53:56;;;;;;;26.60;17.20;;;4.90;81.50;;;;;;5001009;28;20057;-77
2023/01/27 09:56:22;;;;;;;26.10;15.75;;;5.00;81.60;;;;;;5034399;28;20521;-77
2023/01/27 09:59:17;;;;;;;24.67;15.93;;;5.00;81.30;;;;;;5037512;28;20386;-77
2023/01/27 10:01:43;;;;;;;;;;;5.00;81.40;;;;;;5036299;28;20048;-76
2023/01/27 10:04:26;;;;;;;26.00;16.10;;;5.10;81.30;;;;;;5036117;28;19974;-74
2023/01/27 10:07:11;;;;;;;23.60;16.48;;;5.10;81.10;;;;;;5034827;28;20030;-73
2023/01/27 10:09:52;;;;;;;25.40;15.75;;;5.30;81.00;;;;;;5036872;28;20021;-75
2023/01/27 10:12:32;;;;;;;21.67;15.63;;;5.30;80.10;;;;;;5035505;28;20087;-74
2023/01/27 10:15:33;;;;;;;21.90;14.85;;;5.30;80.40;;;;;;5036593;28;20021;-74
2023/01/27 10:18:28;;;;;;;21.60;15.25;;;5.30;79.50;;;;;;5030398;28;20217;-74
2023/01/27 10:21:08;;;;;;;24.75;16.17;;;5.50;80.00;;;;;;5037692;28;20034;-77
2023/01/27 10:23:58;;;;;;;25.42;16.13;;;5.70;79.90;;;;;;5035528;28;20448;-74
2023/01/27 10:26:45;;;;;;;21.75;14.00;;;5.80;78.80;;;;;;5034860;28;20071;-74
2023/01/27 10:29:25;;;;;;;22.35;15.25;;;5.80;78.80;;;;;;5035556;28;20025;-75
2023/01/27 10:31:58;;;;;;;21.58;13.65;;;5.70;78.90;;;;;;5048024;28;20021;-76
2023/01/27 10:34:24;;;;;;;22.85;16.17;;;5.90;79.20;;;;;;5033164;28;20481;-76
2023/01/27 10:37:40;;;;;;;22.38;15.30;;;6.00;78.90;;;;;;5036183;28;20308;-74
2023/01/27 10:40:34;;;;;;;23.38;16.00;;;6.10;78.30;;;;;;5011258;28;20116;-75
2023/01/27 10:43:12;;;;;;;22.15;14.82;;;6.10;78.50;;;;;;5034463;28;20040;-75
2023/01/27 10:45:50;;;;;;;23.80;15.90;;;6.10;78.80;;;;;;5031900;28;20502;-74
2023/01/27 10:48:34;;;;;;;27.23;17.73;;;6.20;79.00;;;;;;5030884;28;20049;-75
2023/01/27 10:51:12;;;;;;;23.30;15.93;;;6.30;78.10;;;;;;5033734;28;20090;-75
2023/01/27 10:53:59;;;;;;;20.45;14.77;;;6.20;77.60;;;;;;5037700;28;20067;-77
2023/01/27 10:56:43;;;;;;;21.35;14.90;;;6.10;77.10;;;;;;5036020;28;20080;-74
2023/01/27 10:59:36;;;;;;;19.52;13.35;;;6.20;78.00;;;;;;5037731;28;20033;-75
2023/01/27 11:02:08;;;;;;;19.15;13.90;;;6.10;77.00;;;;;;5036266;28;20253;-76
2023/01/27 11:04:42;;;;;;;19.77;12.65;;;6.10;77.20;;;;;;5033855;28;20447;-74
2023/01/27 11:07:22;;;;;;;20.90;13.45;;;6.10;77.30;;;;;;5028756;28;20045;-76
2023/01/27 11:09:52;;;;;;;16.85;11.35;;;6.10;78.10;;;;;;5022394;28;20108;-76
2023/01/27 11:12:48;;;;;;;16.42;12.10;;;6.10;77.00;;;;;;5032040;28;20029;-75
2023/01/27 11:15:27;;;;;;;15.05;10.85;;;6.20;76.50;;;;;;5023948;28;20044;-75
2023/01/27 11:18:23;;;;;;;15.25;9.88;;;6.10;76.40;;;;;;5031973;28;20342;-75
2023/01/27 11:20:52;;;;;;;15.65;9.57;;;6.20;76.10;;;;;;5031181;28;20528;-76
2023/01/27 11:23:22;;;;;;;15.63;11.15;;;6.20;76.20;;;;;;5034803;28;20032;-75
2023/01/27 11:25:56;;;;;;;15.05;10.07;;;6.20;75.80;;;;;;5031652;28;20453;-75
2023/01/27 11:28:36;;;;;;;14.57;9.90;;;6.20;75.50;;;;;;5031758;28;20029;-75
2023/01/27 11:31:34;;;;;;;13.70;10.32;;;6.20;74.80;;;;;;5033541;28;20037;-75
2023/01/27 11:34:02;;;;;;;12.85;9.02;;;6.10;74.70;;;;;;5029177;28;20040;-74
2023/01/27 11:36:28;;;;;;;14.95;10.65;;;6.20;74.80;;;;;;5032512;28;20036;-75
2023/01/27 11:38:55;;;;;;;9.15;6.47;;;6.40;74.00;;;;;;5034377;28;20050;-75
2023/01/27 11:41:22;;;;;;;11.65;7.28;;;6.10;71.30;;;;;;5027267;28;20040;-75
2023/01/27 11:43:48;;;;;;;9.98;6.15;;;6.30;71.30;;;;;;5026944;28;20033;-79
2023/01/27 11:46:20;;;;;;;10.10;6.70;;;6.20;70.80;;;;;;5026547;28;20542;-76
2023/01/27 11:48:49;;;;;;;10.55;7.00;;;6.20;70.70;;;;;;5024650;28;20103;-76
2023/01/27 11:51:28;;;;;;;9.55;6.60;;;6.20;70.80;;;;;;5023344;28;21280;-76
2023/01/27 11:58:05;;;;;;;10.35;7.78;;;6.10;71.50;;;;;;4962805;28;20051;-78
2023/01/27 12:00:37;;;;;;;11.63;8.48;;;6.20;72.50;;;;;;5021377;28;20041;-76
2023/01/27 12:03:12;;;;;;;12.48;8.73;;;6.20;73.20;;;;;;5025460;28;20417;-75
2023/01/27 12:05:44;;;;;;;12.77;8.68;;;6.20;73.20;;;;;;5027306;28;20085;-75
2023/01/27 12:08:09;;;;;;;11.23;6.85;;;6.10;72.30;;;;;;5027973;28;20030;-77
2023/01/27 12:10:41;;;;;;;11.32;8.23;;;6.10;72.00;;;;;;5027258;28;20090;-76
2023/01/27 12:13:19;;;;;;;11.32;7.53;;;6.20;72.30;;;;;;5026056;28;20032;-76
2023/01/27 12:15:58;;;;;;;8.70;6.53;;;6.20;72.70;;;;;;5024422;28;20033;-76
2023/01/27 12:18:24;;;;;;;11.10;7.50;;;6.20;73.20;;;;;;5023718;28;20136;-76
2023/01/27 12:20:59;;;;;;;10.95;7.07;;;6.10;73.40;;;;;;5021917;28;21734;-75
2023/01/27 12:24:00;;;;;;;10.40;7.10;;;6.10;73.20;;;;;;5024402;28;20028;-75
2023/01/27 12:26:44;;;;;;;12.27;7.85;;;6.10;73.60;;;;;;5015447;28;20060;-76
2023/01/27 12:29:24;;;;;;;11.07;6.97;;;6.00;74.10;;;;;;5024228;28;20377;-75
2023/01/27 12:31:53;;;;;;;9.48;6.97;;;6.00;74.50;;;;;;5025013;28;20572;-75
2023/01/27 12:34:27;;;;;;;12.07;6.95;;;6.10;74.50;;;;;;5028478;28;20433;-75
2023/01/27 12:36:55;;;;;;;10.25;6.25;;;6.10;74.10;;;;;;5029117;28;20545;-76
2023/01/27 12:39:38;;;;;;;11.52;6.90;;;6.00;74.70;;;;;;5026428;28;20389;-76
2023/01/27 12:42:04;;;;;;;10.27;7.22;;;5.90;74.00;;;;;;5027268;28;20060;-75
2023/01/27 12:44:49;;;;;;;10.80;6.55;;;5.90;74.80;;;;;;5027253;28;20474;-76
2023/01/27 12:47:30;;;;;;;8.98;5.97;;;5.90;74.50;;;;;;5037719;28;20060;-76
2023/01/27 12:50:30;;;;;;;9.95;6.15;;;5.80;74.40;;;;;;5023392;28;20075;-76
2023/01/27 12:53:14;;;;;;;10.25;6.30;;;5.70;74.80;;;;;;4994197;28;20061;-76
2023/01/27 12:55:47;;;;;;;9.88;6.47;;;5.80;75.40;;;;;;5027375;28;20063;-76
2023/01/27 12:59:02;;;;;;;11.13;6.13;;;5.70;74.80;;;;;;5026727;28;20057;-76
2023/01/27 13:01:33;;;;;;;8.88;5.80;;;5.70;75.50;;;;;;5010487;28;20761;-76
2023/01/27 13:04:03;;;;;;;10.02;6.13;;;5.70;75.50;;;;;;5026897;28;20017;-77
2023/01/27 13:06:46;;;;;;;9.07;6.28;;;5.70;75.70;;;;;;5032846;28;20501;-76
2023/01/27 13:09:23;;;;;;;10.05;5.80;;;5.60;75.40;;;;;;5031016;28;20044;-77
2023/01/27 13:11:49;;;;;;;9.68;5.95;;;5.70;75.70;;;;;;5022246;28;20041;-78
2023/01/27 13:14:18;;;;;;;11.18;6.30;;;5.60;75.60;;;;;;5020052;28;20040;-78
2023/01/27 13:16:52;;;;;;;11.25;6.00;;;5.60;75.80;;;;;;5024125;28;20041;-77
2023/01/27 13:19:17;;;;;;;10.90;6.50;;;5.60;75.90;;;;;;5028654;28;20273;-76
2023/01/27 13:21:49;;;;;;;10.65;6.20;;;5.60;76.40;;;;;;5025220;28;20044;-78
2023/01/27 13:24:32;;;;;;;8.95;5.72;;;5.60;75.90;;;;;;5021607;28;20131;-76
2023/01/27 13:26:59;;;;;;;9.55;5.38;;;5.60;75.90;;;;;;5020469;28;20037;-77
2023/01/27 13:29:30;;;;;;;8.73;5.55;;;5.60;75.90;;;;;;5028679;28;20021;-76
2023/01/27 13:32:20;;;;;;;8.85;5.82;;;5.50;76.00;;;;;;5029859;28;20029;-76